createdAt,value
2018-10-16T00:00:17.598Z,96.60
2018-10-16T00:02:47.002Z,96.30
2018-10-16T00:05:16.658Z,96.30
2018-10-16T00:07:45.414Z,96.30
2018-10-16T00:10:18.430Z,96.20
2018-10-16T00:12:47.459Z,96.30
2018-10-16T00:15:16.312Z,96.40
2018-10-16T00:17:45.058Z,96.50
2018-10-16T00:20:13.868Z,96.60
2018-10-16T00:22:42.818Z,97.00
2018-10-16T00:25:14.451Z,97.10
2018-10-16T00:27:43.219Z,97.20
2018-10-16T00:30:12.038Z,97.30
2018-10-16T00:32:41.708Z,97.40
2018-10-16T00:35:10.878Z,97.40
2018-10-16T00:37:39.762Z,97.30
2018-10-16T00:40:09.310Z,97.30
2018-10-16T00:42:38.155Z,97.40
2018-10-16T00:45:08.547Z,97.50
2018-10-16T00:47:37.404Z,97.80
2018-10-16T00:50:06.317Z,97.40
2018-10-16T00:52:35.102Z,97.40
2018-10-16T00:55:04.433Z,97.50
2018-10-16T00:57:33.178Z,97.50
2018-10-16T01:00:01.941Z,97.50
2018-10-16T01:02:30.696Z,97.50
2018-10-16T01:04:59.459Z,97.50
2018-10-16T01:07:28.220Z,97.60
2018-10-16T01:09:56.947Z,97.50
2018-10-16T01:12:25.744Z,97.60
2018-10-16T01:14:54.515Z,97.50
2018-10-16T01:17:23.280Z,97.50
2018-10-16T01:19:52.030Z,97.60
2018-10-16T01:22:20.842Z,97.60
2018-10-16T01:24:49.590Z,97.60
2018-10-16T01:27:18.417Z,97.60
2018-10-16T01:29:47.249Z,97.60
2018-10-16T01:32:16.055Z,97.60
2018-10-16T01:34:44.820Z,97.60
2018-10-16T01:37:13.594Z,97.60
2018-10-16T01:39:42.362Z,97.60
2018-10-16T01:42:11.146Z,97.60
2018-10-16T01:44:39.911Z,97.60
2018-10-16T01:47:08.730Z,97.60
2018-10-16T01:49:37.537Z,97.60
2018-10-16T01:52:06.337Z,97.60
2018-10-16T01:54:35.102Z,97.60
2018-10-16T01:57:04.551Z,97.70
2018-10-16T01:59:33.333Z,97.70
2018-10-16T02:02:02.119Z,97.90
2018-10-16T02:04:30.966Z,97.90
2018-10-16T02:06:59.737Z,97.90
2018-10-16T02:09:28.550Z,97.80
2018-10-16T02:11:57.330Z,97.80
2018-10-16T02:14:26.729Z,97.80
2018-10-16T02:16:56.254Z,97.90
2018-10-16T02:19:25.070Z,97.80
2018-10-16T02:21:53.893Z,97.90
2018-10-16T02:24:22.655Z,97.90
2018-10-16T02:26:51.419Z,97.90
2018-10-16T02:29:20.179Z,97.90
2018-10-16T02:31:48.939Z,97.90
2018-10-16T02:34:17.693Z,97.90
2018-10-16T02:36:46.439Z,97.90
2018-10-16T02:39:15.191Z,98.00
2018-10-16T02:41:43.983Z,98.00
2018-10-16T02:44:12.722Z,98.00
2018-10-16T02:46:41.507Z,98.00
2018-10-16T02:49:10.283Z,97.90
2018-10-16T02:51:39.092Z,97.90
2018-10-16T02:54:07.842Z,97.90
2018-10-16T02:56:37.182Z,98.10
2018-10-16T02:59:05.951Z,97.90
2018-10-16T03:01:34.711Z,97.90
2018-10-16T03:04:04.479Z,97.80
2018-10-16T03:06:33.230Z,97.80
2018-10-16T03:09:02.000Z,97.80
2018-10-16T03:11:30.774Z,97.80
2018-10-16T03:13:59.578Z,97.80
2018-10-16T03:16:28.367Z,97.80
2018-10-16T03:18:57.183Z,97.80
2018-10-16T03:21:25.966Z,97.80
2018-10-16T03:23:54.817Z,97.80
2018-10-16T03:26:23.575Z,97.90
2018-10-16T03:28:52.319Z,97.90
2018-10-16T03:31:21.070Z,97.90
2018-10-16T03:33:49.908Z,98.00
2018-10-16T03:36:18.693Z,98.00
2018-10-16T03:38:47.506Z,98.00
2018-10-16T03:41:16.299Z,98.40
2018-10-16T03:43:45.074Z,98.00
2018-10-16T03:46:13.974Z,98.10
2018-10-16T03:48:42.723Z,98.20
2018-10-16T03:51:11.482Z,98.20
2018-10-16T03:53:40.235Z,98.30
2018-10-16T03:56:09.070Z,98.30
2018-10-16T03:58:37.882Z,98.30
2018-10-16T04:01:07.286Z,98.30
2018-10-16T04:03:36.073Z,98.40
2018-10-16T04:06:04.977Z,98.40
2018-10-16T04:08:33.721Z,98.80
2018-10-16T04:11:03.022Z,98.70
2018-10-16T04:13:31.749Z,98.70
2018-10-16T04:16:00.516Z,98.80
2018-10-16T04:18:29.299Z,98.80
2018-10-16T04:20:58.095Z,98.80
2018-10-16T04:23:26.874Z,98.90
2018-10-16T04:25:55.651Z,98.90
2018-10-16T04:28:24.478Z,98.90
2018-10-16T04:30:53.230Z,98.90
2018-10-16T04:33:22.003Z,98.90
2018-10-16T04:35:50.785Z,99.00
2018-10-16T04:38:19.566Z,98.90
2018-10-16T04:40:48.991Z,98.90
2018-10-16T04:43:17.734Z,98.80
2018-10-16T04:45:46.542Z,98.70
2018-10-16T04:48:15.326Z,98.60
2018-10-16T04:50:44.070Z,98.50
2018-10-16T04:53:12.859Z,98.60
2018-10-16T04:55:41.658Z,98.60
2018-10-16T04:58:10.440Z,98.70
2018-10-16T05:00:39.214Z,98.80
2018-10-16T05:03:07.976Z,98.90
2018-10-16T05:05:36.750Z,99.00
2018-10-16T05:08:05.967Z,99.10
2018-10-16T05:10:34.768Z,99.10
2018-10-16T05:13:04.845Z,99.00
2018-10-16T05:15:34.395Z,99.00
2018-10-16T05:18:03.262Z,99.00
2018-10-16T05:20:32.005Z,99.00
2018-10-16T05:23:01.176Z,99.00
2018-10-16T05:25:30.631Z,99.00
2018-10-16T05:27:59.402Z,99.20
2018-10-16T05:30:28.215Z,98.90
2018-10-16T05:32:56.948Z,99.00
2018-10-16T05:35:25.718Z,99.00
2018-10-16T05:37:54.487Z,99.00
2018-10-16T05:40:23.219Z,98.90
2018-10-16T05:42:51.974Z,98.90
2018-10-16T05:45:20.741Z,98.90
2018-10-16T05:47:49.484Z,99.00
2018-10-16T05:50:18.230Z,99.00
2018-10-16T05:52:47.002Z,98.90
2018-10-16T05:55:15.758Z,98.90
2018-10-16T05:57:44.494Z,98.90
2018-10-16T06:00:24.571Z,98.90
2018-10-16T06:02:53.350Z,98.80
2018-10-16T06:05:22.098Z,98.80
2018-10-16T06:07:50.882Z,98.80
2018-10-16T06:10:19.671Z,98.80
2018-10-16T06:12:48.410Z,98.80
2018-10-16T06:15:17.423Z,98.90
2018-10-16T06:17:46.119Z,98.90
2018-10-16T06:20:14.862Z,98.90
2018-10-16T06:22:43.673Z,98.80
2018-10-16T06:25:12.710Z,98.90
2018-10-16T06:27:42.518Z,98.80
2018-10-16T06:30:11.696Z,98.90
2018-10-16T06:32:42.506Z,99.00
2018-10-16T06:35:11.574Z,99.10
2018-10-16T06:37:40.444Z,99.10
2018-10-16T06:40:09.975Z,99.20
2018-10-16T06:42:39.238Z,99.20
2018-10-16T06:45:09.206Z,99.30
2018-10-16T06:47:38.182Z,99.40
2018-10-16T06:50:08.808Z,99.40
2018-10-16T06:52:37.595Z,99.40
2018-10-16T06:55:06.381Z,99.40
2018-10-16T06:57:35.558Z,99.50
2018-10-16T07:00:06.197Z,99.50
2018-10-16T07:02:34.896Z,99.50
2018-10-16T07:05:05.429Z,99.50
2018-10-16T07:07:34.162Z,99.60
2018-10-16T07:10:02.902Z,99.50
2018-10-16T07:12:31.644Z,99.60
2018-10-16T07:15:00.464Z,99.70
2018-10-16T07:17:29.167Z,99.80
2018-10-16T07:19:57.927Z,99.90
2018-10-16T07:22:26.691Z,99.90
2018-10-16T07:24:55.428Z,99.90
2018-10-16T07:27:24.480Z,99.90
2018-10-16T07:29:53.285Z,99.90
2018-10-16T07:32:21.986Z,99.90
2018-10-16T07:34:50.775Z,99.90
2018-10-16T07:37:19.522Z,99.90
2018-10-16T07:39:48.258Z,99.90
2018-10-16T07:42:16.989Z,99.90
2018-10-16T07:44:45.806Z,99.90
2018-10-16T07:47:14.555Z,99.90
2018-10-16T07:49:43.318Z,99.90
2018-10-16T07:52:12.054Z,99.90
2018-10-16T07:54:40.839Z,99.90
2018-10-16T07:57:09.953Z,99.90
2018-10-16T07:59:38.610Z,99.90
2018-10-16T08:02:07.361Z,99.90
2018-10-16T08:04:36.095Z,99.90
2018-10-16T08:07:04.874Z,99.90
2018-10-16T08:09:33.642Z,99.90
2018-10-16T08:12:02.458Z,99.90
2018-10-16T08:14:31.196Z,98.70
2018-10-16T08:16:59.951Z,98.10
2018-10-16T08:19:28.723Z,97.60
2018-10-16T08:21:57.470Z,97.70
2018-10-16T08:24:26.218Z,96.60
2018-10-16T08:26:55.064Z,96.20
2018-10-16T08:29:23.770Z,96.10
2018-10-16T08:31:52.516Z,95.80
2018-10-16T08:34:21.364Z,95.10
2018-10-16T08:36:50.145Z,95.00
2018-10-16T08:39:24.682Z,95.00
2018-10-16T08:44:13.562Z,94.80
2018-10-16T08:46:53.749Z,94.40
2018-10-16T08:49:33.851Z,94.20
2018-10-16T08:52:02.595Z,92.20
2018-10-16T08:54:31.335Z,92.10
2018-10-16T08:57:00.082Z,92.30
2018-10-16T08:59:28.902Z,91.20
2018-10-16T09:01:57.658Z,90.40
2018-10-16T09:04:26.443Z,90.10
2018-10-16T09:06:55.222Z,89.90
2018-10-16T09:09:23.918Z,89.30
2018-10-16T09:11:53.354Z,90.20
2018-10-16T09:14:22.149Z,90.60
2018-10-16T09:16:50.875Z,90.40
2018-10-16T09:19:19.670Z,89.90
2018-10-16T09:21:48.454Z,89.70
2018-10-16T09:24:17.198Z,89.70
2018-10-16T09:26:45.975Z,90.10
2018-10-16T09:29:14.778Z,90.30
2018-10-16T09:31:43.511Z,90.20
2018-10-16T09:34:12.266Z,90.40
2018-10-16T09:36:41.042Z,90.40
2018-10-16T09:39:10.722Z,89.70
2018-10-16T09:41:39.503Z,87.60
2018-10-16T09:44:08.250Z,86.70
2018-10-16T09:46:37.223Z,84.50
2018-10-16T09:49:05.963Z,84.60
2018-10-16T09:51:34.702Z,83.70
2018-10-16T09:54:04.427Z,85.20
2018-10-16T09:56:33.226Z,83.50
2018-10-16T09:59:01.999Z,84.80
2018-10-16T10:01:36.227Z,81.50
2018-10-16T10:04:05.094Z,81.30
2018-10-16T10:06:33.822Z,80.60
2018-10-16T10:09:03.790Z,79.60
2018-10-16T10:11:32.542Z,80.50
2018-10-16T10:14:01.368Z,79.10
2018-10-16T10:16:30.112Z,79.60
2018-10-16T10:18:58.846Z,80.20
2018-10-16T10:21:27.637Z,79.50
2018-10-16T10:23:56.382Z,78.10
2018-10-16T10:26:25.114Z,77.70
2018-10-16T10:28:53.926Z,77.90
2018-10-16T10:31:22.679Z,77.30
2018-10-16T10:33:51.469Z,78.70
2018-10-16T10:36:20.262Z,78.00
2018-10-16T10:38:49.038Z,75.60
2018-10-16T10:41:17.847Z,78.60
2018-10-16T10:43:46.698Z,77.10
2018-10-16T10:46:15.538Z,73.90
2018-10-16T10:48:44.266Z,72.20
2018-10-16T10:51:13.276Z,72.60
2018-10-16T10:53:41.758Z,73.40
2018-10-16T10:56:10.498Z,69.70
2018-10-16T10:58:39.254Z,69.00
2018-10-16T11:01:08.002Z,67.10
2018-10-16T11:03:36.782Z,68.40
2018-10-16T11:06:05.554Z,66.00
2018-10-16T11:08:34.299Z,66.90
2018-10-16T11:11:03.031Z,65.60
2018-10-16T11:13:31.813Z,66.60
2018-10-16T11:16:00.518Z,65.70
2018-10-16T11:18:30.133Z,62.50
2018-10-16T11:20:58.889Z,63.60
2018-10-16T11:23:27.721Z,61.20
2018-10-16T11:25:56.440Z,64.50
2018-10-16T11:28:25.182Z,61.70
2018-10-16T11:30:54.388Z,62.00
2018-10-16T11:33:23.106Z,61.60
2018-10-16T11:35:51.922Z,59.80
2018-10-16T11:38:20.699Z,59.40
2018-10-16T11:40:49.463Z,61.10
2018-10-16T11:43:18.231Z,61.80
2018-10-16T11:45:47.019Z,63.70
2018-10-16T11:48:15.867Z,61.10
2018-10-16T11:50:44.571Z,61.80
2018-10-16T11:53:13.298Z,60.80
2018-10-16T11:55:42.058Z,60.60
2018-10-16T11:58:10.796Z,58.90
2018-10-16T12:00:39.622Z,58.60
2018-10-16T12:03:08.386Z,58.90
2018-10-16T12:05:37.115Z,59.10
2018-10-16T12:08:05.920Z,57.80
2018-10-16T12:10:34.653Z,58.60
2018-10-16T12:13:04.314Z,60.20
2018-10-16T12:15:33.050Z,59.90
2018-10-16T12:18:05.100Z,59.40
2018-10-16T12:20:37.899Z,59.10
2018-10-16T12:23:06.666Z,59.10
2018-10-16T12:25:35.422Z,60.00
2018-10-16T12:28:04.413Z,59.70
2018-10-16T12:30:33.160Z,61.20
2018-10-16T12:33:01.958Z,59.90
2018-10-16T12:35:30.702Z,61.50
2018-10-16T12:37:59.482Z,61.50
2018-10-16T12:40:28.222Z,59.90
2018-10-16T12:42:57.055Z,60.30
2018-10-16T12:45:25.741Z,59.40
2018-10-16T12:47:54.507Z,60.10
2018-10-16T12:50:23.270Z,60.40
2018-10-16T12:52:51.973Z,60.00
2018-10-16T12:55:20.686Z,61.80
2018-10-16T12:57:49.455Z,60.50
2018-10-16T13:00:18.236Z,59.40
2018-10-16T13:02:46.966Z,59.70
2018-10-16T13:05:16.004Z,61.10
2018-10-16T13:07:44.632Z,59.40
2018-10-16T13:10:14.624Z,58.70
2018-10-16T13:12:44.277Z,57.40
2018-10-16T13:15:13.976Z,58.70
2018-10-16T13:17:42.757Z,58.30
2018-10-16T13:20:13.031Z,58.70
2018-10-16T13:22:42.582Z,58.30
2018-10-16T13:25:12.799Z,59.10
2018-10-16T13:27:41.532Z,59.30
2018-10-16T13:30:12.073Z,60.10
2018-10-16T13:32:40.914Z,59.70
2018-10-16T13:35:15.838Z,59.40
2018-10-16T13:37:45.249Z,57.10
2018-10-16T13:40:14.075Z,56.70
2018-10-16T13:42:42.881Z,56.00
2018-10-16T13:45:12.477Z,54.80
2018-10-16T13:47:41.463Z,54.00
2018-10-16T13:50:12.530Z,51.80
2018-10-16T13:52:41.205Z,51.40
2018-10-16T13:55:10.839Z,51.50
2018-10-16T13:57:39.909Z,51.60
2018-10-16T14:00:12.512Z,51.60
2018-10-16T14:02:41.950Z,51.80
2018-10-16T14:05:10.682Z,51.40
2018-10-16T14:07:39.488Z,51.10
2018-10-16T14:10:09.719Z,52.00
2018-10-16T14:12:39.414Z,52.30
2018-10-16T14:15:08.612Z,52.10
2018-10-16T14:17:37.426Z,53.10
2018-10-16T14:20:06.798Z,52.00
2018-10-16T14:22:36.026Z,50.90
2018-10-16T14:25:05.461Z,52.30
2018-10-16T14:27:34.222Z,51.80
2018-10-16T14:30:03.262Z,53.10
2018-10-16T14:32:31.997Z,53.20
2018-10-16T14:35:00.747Z,52.90
2018-10-16T14:37:29.526Z,53.10
2018-10-16T14:39:58.273Z,53.00
2018-10-16T14:42:27.060Z,54.40
2018-10-16T14:44:55.786Z,54.70
2018-10-16T14:47:24.521Z,53.90
2018-10-16T14:49:53.318Z,54.70
2018-10-16T14:52:22.011Z,55.40
2018-10-16T14:54:50.812Z,54.60
2018-10-16T14:57:19.626Z,54.60
2018-10-16T14:59:48.394Z,54.80
2018-10-16T15:02:17.158Z,53.90
2018-10-16T15:04:45.926Z,53.60
2018-10-16T15:07:14.640Z,54.00
2018-10-16T15:09:43.464Z,53.80
2018-10-16T15:12:12.179Z,53.90
2018-10-16T15:14:40.939Z,54.40
2018-10-16T15:17:09.702Z,54.50
2018-10-16T15:19:38.450Z,54.00
2018-10-16T15:22:07.435Z,54.70
2018-10-16T15:24:36.114Z,55.70
2018-10-16T15:27:05.062Z,56.20
2018-10-16T15:29:33.916Z,56.40
2018-10-16T15:32:02.634Z,56.40
2018-10-16T15:34:31.374Z,56.50
2018-10-16T15:37:00.182Z,56.50
2018-10-16T15:39:28.922Z,56.80
2018-10-16T15:41:57.813Z,57.10
2018-10-16T15:44:26.565Z,57.40
2018-10-16T15:46:55.298Z,56.70
2018-10-16T15:49:24.040Z,57.50
2018-10-16T15:51:52.811Z,57.40
2018-10-16T15:54:22.211Z,57.50
2018-10-16T15:56:51.954Z,58.20
2018-10-16T15:59:20.735Z,58.40
2018-10-16T16:01:49.516Z,59.00
2018-10-16T16:04:18.494Z,59.20
2018-10-16T16:06:47.258Z,60.90
2018-10-16T16:09:16.032Z,61.70
2018-10-16T16:11:44.870Z,60.70
2018-10-16T16:14:13.687Z,61.70
2018-10-16T16:16:42.375Z,63.20
2018-10-16T16:19:11.157Z,65.00
2018-10-16T16:21:39.892Z,66.20
2018-10-16T16:24:08.675Z,65.80
2018-10-16T16:26:37.417Z,66.40
2018-10-16T16:29:06.255Z,67.50
2018-10-16T16:31:35.104Z,68.90
2018-10-16T16:34:05.023Z,69.20
2018-10-16T16:36:33.732Z,70.10
2018-10-16T16:39:02.438Z,70.70
2018-10-16T16:41:31.215Z,71.80
2018-10-16T16:43:59.976Z,72.60
2018-10-16T16:46:28.730Z,73.50
2018-10-16T16:48:57.468Z,74.10
2018-10-16T16:51:26.247Z,75.10
2018-10-16T16:53:54.973Z,76.00
2018-10-16T16:56:23.722Z,76.40
2018-10-16T16:58:52.732Z,77.60
2018-10-16T17:01:21.413Z,77.90
2018-10-16T17:03:50.194Z,78.80
2018-10-16T17:06:19.054Z,79.50
2018-10-16T17:08:47.837Z,80.50
2018-10-16T17:11:16.619Z,81.10
2018-10-16T17:13:45.436Z,81.00
2018-10-16T17:16:14.179Z,83.40
2018-10-16T17:18:43.070Z,83.20
2018-10-16T17:21:11.836Z,84.10
2018-10-16T17:23:40.558Z,84.40
2018-10-16T17:26:09.424Z,85.00
2018-10-16T17:28:38.050Z,85.80
2018-10-16T17:31:06.855Z,86.10
2018-10-16T17:33:35.674Z,86.50
2018-10-16T17:36:04.984Z,87.00
2018-10-16T17:38:33.737Z,87.50
2018-10-16T17:41:02.767Z,87.80
2018-10-16T17:43:31.507Z,88.10
2018-10-16T17:46:00.305Z,88.20
2018-10-16T17:48:29.063Z,88.80
2018-10-16T17:50:57.917Z,88.50
2018-10-16T17:53:27.546Z,89.40
2018-10-16T17:55:56.355Z,89.60
2018-10-16T17:58:25.102Z,90.40
2018-10-16T18:00:53.906Z,90.00
2018-10-16T18:03:22.668Z,90.10
2018-10-16T18:05:51.462Z,90.00
2018-10-16T18:08:20.187Z,90.10
2018-10-16T18:10:48.937Z,90.20
2018-10-16T18:13:17.703Z,90.40
2018-10-16T18:15:46.526Z,90.80
2018-10-16T18:18:15.331Z,91.00
2018-10-16T18:20:44.093Z,91.20
2018-10-16T18:23:12.846Z,91.20
2018-10-16T18:25:41.626Z,91.20
2018-10-16T18:28:10.373Z,91.20
2018-10-16T18:30:39.133Z,91.50
2018-10-16T18:33:07.968Z,92.10
2018-10-16T18:35:36.665Z,91.70
2018-10-16T18:38:05.468Z,91.60
2018-10-16T18:40:34.219Z,91.80
2018-10-16T18:43:02.966Z,91.70
2018-10-16T18:45:31.713Z,91.70
2018-10-16T18:48:00.466Z,91.90
2018-10-16T18:50:29.306Z,92.30
2018-10-16T18:52:58.049Z,92.00
2018-10-16T18:55:26.786Z,92.20
2018-10-16T18:57:55.567Z,92.30
2018-10-16T19:00:24.330Z,92.50
2018-10-16T19:02:53.045Z,92.60
2018-10-16T19:05:22.442Z,92.70
2018-10-16T19:07:51.387Z,92.80
2018-10-16T19:10:20.150Z,92.70
2018-10-16T19:12:48.911Z,92.70
2018-10-16T19:15:18.412Z,92.70
2018-10-16T19:17:47.334Z,92.80
2018-10-16T19:20:16.974Z,92.90
2018-10-16T19:22:46.393Z,93.10
2018-10-16T19:25:17.233Z,93.10
2018-10-16T19:27:46.015Z,93.20
2018-10-16T19:30:14.730Z,93.10
2018-10-16T19:32:43.518Z,93.10
2018-10-16T19:35:13.465Z,93.10
2018-10-16T19:37:42.380Z,93.10
2018-10-16T19:40:11.231Z,93.20
2018-10-16T19:42:39.990Z,93.10
2018-10-16T19:45:09.342Z,93.10
2018-10-16T19:47:38.065Z,93.10
2018-10-16T19:50:07.378Z,93.20
2018-10-16T19:52:36.157Z,93.20
2018-10-16T19:55:05.874Z,93.20
2018-10-16T19:57:34.601Z,93.10
2018-10-16T20:00:03.406Z,93.20
2018-10-16T20:02:32.138Z,93.30
2018-10-16T20:05:00.863Z,93.40
2018-10-16T20:07:29.623Z,93.50
2018-10-16T20:09:58.387Z,93.40
2018-10-16T20:12:27.137Z,93.50
2018-10-16T20:14:55.910Z,93.40
2018-10-16T20:17:24.726Z,93.60
2018-10-16T20:19:53.479Z,93.60
2018-10-16T20:22:22.282Z,93.60
2018-10-16T20:24:51.067Z,93.80
2018-10-16T20:27:19.802Z,93.80
2018-10-16T20:29:49.133Z,93.80
2018-10-16T20:32:17.939Z,93.70
2018-10-16T20:34:47.870Z,93.60
2018-10-16T20:37:16.610Z,93.40
2018-10-16T20:39:45.382Z,93.50
2018-10-16T20:42:14.169Z,93.50
2018-10-16T20:44:42.956Z,93.40
2018-10-16T20:47:11.690Z,93.20
2018-10-16T20:49:40.452Z,93.20
2018-10-16T20:52:09.307Z,93.30
2018-10-16T20:54:38.062Z,93.30
2018-10-16T20:57:07.102Z,93.30
2018-10-16T20:59:35.852Z,92.90
2018-10-16T21:02:05.199Z,92.40
2018-10-16T21:04:34.050Z,92.20
2018-10-16T21:07:02.872Z,92.20
2018-10-16T21:09:31.487Z,92.20
2018-10-16T21:12:00.229Z,92.20
2018-10-16T21:14:28.967Z,92.30
2018-10-16T21:16:57.721Z,92.20
2018-10-16T21:22:02.880Z,92.40
2018-10-16T21:24:31.677Z,92.30
2018-10-16T21:27:02.418Z,92.40
2018-10-16T21:29:31.280Z,92.40
2018-10-16T21:32:00.050Z,92.40
2018-10-16T21:34:28.917Z,92.40
2018-10-16T21:36:57.736Z,92.50
2018-10-16T21:39:26.454Z,92.50
2018-10-16T21:41:55.229Z,92.60
2018-10-16T21:44:23.993Z,92.60
2018-10-16T21:46:53.249Z,92.50
2018-10-16T21:49:22.726Z,92.60
2018-10-16T21:51:51.713Z,92.50
2018-10-16T21:54:20.482Z,92.60
2018-10-16T21:56:49.210Z,92.60
2018-10-16T21:59:18.562Z,92.60
2018-10-16T22:01:52.858Z,92.70
2018-10-16T22:04:21.744Z,92.70
2018-10-16T22:06:50.545Z,92.60
2018-10-16T22:09:19.353Z,92.70
2018-10-16T22:11:48.137Z,92.80
2018-10-16T22:14:16.861Z,92.70
2018-10-16T22:16:45.615Z,92.80
2018-10-16T22:19:14.489Z,92.90
2018-10-16T22:21:43.185Z,93.20
2018-10-16T22:24:11.925Z,93.00
2018-10-16T22:26:40.646Z,93.00
2018-10-16T22:29:09.450Z,92.90
2018-10-16T22:31:38.109Z,92.80
2018-10-16T22:34:06.974Z,92.60
2018-10-16T22:36:35.705Z,92.70
2018-10-16T22:39:07.442Z,92.80
2018-10-16T22:41:36.231Z,92.70
2018-10-16T22:44:05.442Z,92.70
2018-10-16T22:46:34.489Z,92.60
2018-10-16T22:49:04.467Z,92.70
2018-10-16T22:51:33.397Z,92.90
2018-10-16T22:54:02.142Z,92.90
2018-10-16T22:56:30.897Z,92.60
2018-10-16T22:59:00.341Z,91.80
2018-10-16T23:01:29.061Z,91.60
2018-10-16T23:03:57.869Z,91.40
2018-10-16T23:06:26.612Z,91.50
2018-10-16T23:08:55.393Z,91.70
2018-10-16T23:11:24.130Z,91.80
2018-10-16T23:13:52.878Z,92.00
2018-10-16T23:16:21.658Z,92.10
2018-10-16T23:18:50.397Z,92.20
2018-10-16T23:21:19.165Z,92.30
2018-10-16T23:23:47.881Z,92.10
2018-10-16T23:26:16.640Z,92.10
2018-10-16T23:28:45.459Z,92.10
2018-10-16T23:31:14.327Z,92.10
2018-10-16T23:33:42.973Z,92.30
2018-10-16T23:36:11.743Z,92.50
2018-10-16T23:38:40.486Z,92.70
2018-10-16T23:41:09.304Z,92.50
2018-10-16T23:43:38.076Z,92.20
2018-10-16T23:46:07.193Z,92.10
2018-10-16T23:48:36.185Z,92.20
2018-10-16T23:51:05.327Z,92.20
2018-10-16T23:53:34.083Z,92.30
2018-10-16T23:56:02.833Z,92.30
2018-10-16T23:58:31.629Z,91.70
